• Join FlightAware (Why Join?)
  • Login
  • US Flag 
05:17AM EDT


 

Airport Tracker/Info


-or-


 

Live Flight TrackerFlight Track Log ✈ EGF2785 ✈ 27-Jul-2013 ✈ KGRR - KORD

Flight Track Log - Related Links

Times and Time Zones

All times are in EDT time to prevent confusion due to time zone crossing. See the EGF2785 flight status page for this flight to view local times or setup timezone preferences in your user account.

Time Position Orientation Groundspeed Altitude Reporting Facility
EDT Latitude Longitude Course Direction KTS MPH feet Rate Location/Type
07:22PM 42.8497 -85.6253 245° Southwest 196 226 4,700  Level Chicago Center
07:23PM 42.7717 -85.7990 249° West  Level FlightAware Approximate
07:23PM 42.8108 -85.7247 242° Southwest 243 280 8,500  Level Chicago Center
07:24PM 42.7344 -85.8856 248° West  Level FlightAware Approximate
07:24PM 42.7775 -85.8131 243° Southwest 257 296 11,000  Level Chicago Center
07:25PM 42.7056 -85.9814 248° West  Level FlightAware Approximate
07:25PM 42.7378 -85.9136 242° Southwest 294 338 12,500  Level Chicago Center
07:26PM 42.6773 -86.0772 253° West  Level FlightAware Approximate
07:26PM 42.6936 -86.0306 243° Southwest 339 390 13,500  Level Chicago Center
07:27PM 42.6625 -86.1644 253° West 369 425 14,800 1,200 Climbing Chicago Center
07:28PM 42.6400 -86.2992 257° West 367 422 16,000 600 Climbing Chicago Center
07:29PM 42.6131 -86.4358 255° West 375 432 16,100  Climbing Chicago Center
07:30PM 42.5878 -86.5725 256° West 373 429 16,100 -240 Level Chicago Center
07:31PM 42.5619 -86.7103 256° West 376 433 15,700 -1,380 Descending Chicago Center
07:32PM 42.5231 -86.8644 251° West 365 420 13,300 -2,220 Descending Chicago Center
07:33PM 42.4872 -86.9883 249° West 356 410 11,200 -1,620 Descending Chicago Center
07:34PM 42.4564 -87.1017 250° West 327 376 10,000 -1,020 Descending Chicago Center
07:35PM 42.4308 -87.1964 250° West 272 313 9,100 -1,200 Descending Chicago Center
07:36PM 42.4067 -87.2883 250° West 263 303 7,600 -1,440 Descending Chicago Center
07:37PM 42.3819 -87.3736 249° West 247 284 6,200 -780 Descending Chicago Center
07:38PM 42.3356 -87.4581 233° Southwest 274 315 6,100 -120 Descending Chicago Center
07:39PM 42.2592 -87.4750 189° South 274 315 6,000 -480 Descending Chicago Center
07:40PM 42.1856 -87.4933 190° South 270 311 5,200 -720 Descending Chicago Center
07:41PM 42.1203 -87.5300 203° Southwest 254 292 4,600 -660 Descending Chicago Center
07:42PM 42.0508 -87.5939 214° Southwest 254 292 3,900 -780 Descending Chicago Center
07:43PM 42.0306 -87.6797 252° West 246 283 3,000 -780 Descending Chicago Center
07:44PM 42.0122 -87.7636 254° West 242 278 2,400 -720 Descending Chicago Center
07:45PM 42.0017 -87.8372 259° West 216 249 1,600 -720 Descending Chicago Center
07:46PM 42.0000 -87.8833 267° West 122 140 1,000 -660 Descending Chicago TRACON